Time;durP1;ratioP1;P1;durP2;ratioP2;P2;SDS_P1;SDS_P2;PMS_P1;PMS_P2;Temp;Humidity;BMP_temperature;BMP_pressure;BME280_temperature;BME280_humidity;BME280_pressure;Samples;Min_cycle;Max_cycle;Signal;HPM_P1;HPM_P2
2021/12/05 00:27:24;;;;;;;2.70;2.10;;;15.20;46.60;;;;;;20712897;28;20403;-78
2021/12/05 00:38:08;;;;;;;3.15;1.88;;;15.20;46.70;;;;;;20742211;28;20076;-78
2021/12/05 01:18:41;;;;;;;2.50;1.77;;;15.10;47.00;;;;;;20726109;28;20038;-78
2021/12/05 01:29:05;;;;;;;3.83;2.25;;;15.00;47.00;;;;;;20705619;28;20037;-77
2021/12/05 01:39:22;;;;;;;2.53;1.65;;;15.00;47.10;;;;;;20721125;28;20037;-77
2021/12/05 02:31:15;;;;;;;2.80;1.60;;;14.80;47.50;;;;;;20734309;28;20048;-77
2021/12/05 02:41:19;;;;;;;2.85;2.08;;;14.80;47.50;;;;;;20717905;28;20041;-77
2021/12/05 02:51:22;;;;;;;2.65;1.70;;;14.80;47.60;;;;;;20731651;28;20061;-77
2021/12/05 03:01:32;;;;;;;2.53;1.67;;;14.70;47.60;;;;;;20714553;28;20038;-77
2021/12/05 03:11:33;;;;;;;3.13;1.60;;;14.70;47.70;;;;;;20713501;28;20128;-78
2021/12/05 03:21:36;;;;;;;2.72;1.83;;;14.70;47.80;;;;;;20714065;28;20065;-78
2021/12/05 03:31:37;;;;;;;2.05;1.52;;;14.60;47.90;;;;;;20713477;28;20042;-78
2021/12/05 03:41:39;;;;;;;2.70;1.67;;;14.60;48.00;;;;;;20715159;28;20381;-78
2021/12/05 03:51:46;;;;;;;3.58;1.83;;;14.60;48.10;;;;;;20729100;28;20034;-78
2021/12/05 04:01:48;;;;;;;3.03;1.58;;;14.50;48.10;;;;;;20710705;28;20034;-77
2021/12/05 04:12:02;;;;;;;2.67;1.70;;;14.50;48.30;;;;;;20711427;28;20472;-78
2021/12/05 04:22:10;;;;;;;3.08;1.95;;;14.40;48.30;;;;;;20722464;28;20037;-78
2021/12/05 04:32:12;;;;;;;3.20;1.85;;;14.40;48.40;;;;;;20742463;28;20096;-78
2021/12/05 04:42:15;;;;;;;2.10;1.67;;;14.40;48.50;;;;;;20741195;28;20038;-78
2021/12/05 04:52:18;;;;;;;2.15;1.40;;;14.50;48.70;;;;;;20725453;28;20034;-77
2021/12/05 05:02:21;;;;;;;2.65;1.80;;;14.30;48.70;;;;;;20723652;28;20034;-77
2021/12/05 05:12:22;;;;;;;2.47;1.55;;;14.30;48.80;;;;;;20722867;28;20165;-78
2021/12/05 05:43:10;;;;;;;1.95;1.42;;;17.40;43.20;;;;;;20735989;28;20034;-76
2021/12/05 05:53:11;;;;;;;3.40;1.63;;;18.60;40.80;;;;;;20718476;28;20451;-77
2021/12/05 06:03:25;;;;;;;2.17;1.50;;;19.50;39.10;;;;;;20718534;28;20120;-78
2021/12/05 06:13:26;;;;;;;2.00;1.52;;;20.00;38.70;;;;;;20735226;28;20380;-79
2021/12/05 06:23:27;;;;;;;3.47;1.80;;;20.30;37.50;;;;;;20718320;28;20172;-79
2021/12/05 06:53:51;;;;;;;2.67;1.70;;;19.00;38.80;;;;;;20714614;28;20419;-77
2021/12/05 07:03:56;;;;;;;2.83;1.30;;;17.90;40.50;;;;;;20730086;28;20034;-78
2021/12/05 07:44:57;;;;;;;4.50;1.48;;;16.00;44.40;;;;;;20707734;28;20025;-77
2021/12/05 07:55:10;;;;;;;1.73;1.05;;;16.00;44.80;;;;;;20710025;28;20582;-75
2021/12/05 08:15:43;;;;;;;2.95;1.20;;;15.70;45.20;;;;;;20728155;28;20046;-79
2021/12/05 08:25:51;;;;;;;1.92;1.17;;;15.60;45.60;;;;;;20727768;28;20056;-77
2021/12/05 08:36:35;;;;;;;2.10;1.38;;;15.50;45.90;;;;;;20710015;28;20057;-77
2021/12/05 10:39:29;;;;;;;1.80;0.80;;;14.50;48.80;;;;;;20737328;28;20117;-78
2021/12/05 10:49:29;;;;;;;1.45;0.70;;;14.50;49.00;;;;;;20774112;28;20423;-80
2021/12/05 10:59:37;;;;;;;2.40;1.65;;;14.50;49.80;;;;;;20800376;28;20566;-79
2021/12/05 11:09:44;;;;;;;1.65;0.80;;;14.40;49.90;;;;;;20741027;28;20128;-76
2021/12/05 11:19:50;;;;;;;1.27;0.70;;;15.10;48.30;;;;;;21057599;23;20050;-72
2021/12/05 11:29:59;;;;;;;1.77;0.70;;;16.30;46.10;;;;;;20611906;28;20041;-73
2021/12/05 11:40:05;;;;;;;0.82;0.70;;;17.20;44.20;;;;;;20619903;28;20101;-71
2021/12/05 11:50:07;;;;;;;2.75;0.80;;;18.00;42.50;;;;;;20610112;28;20097;-72
2021/12/05 12:00:10;;;;;;;1.95;1.15;;;19.10;40.70;;;;;;20610298;28;20034;-73
2021/12/05 12:10:23;;;;;;;2.80;0.80;;;19.80;39.20;;;;;;20626545;28;20464;-77
2021/12/05 12:20:25;;;;;;;2.40;0.80;;;20.20;38.30;;;;;;20635918;28;20046;-74
2021/12/05 12:30:27;;;;;;;3.83;0.80;;;20.30;38.00;;;;;;20587115;28;20069;-73
2021/12/05 12:40:52;;;;;;;1.42;0.80;;;20.40;37.70;;;;;;20610463;28;20378;-73
2021/12/05 12:50:52;;;;;;;2.85;1.05;;;20.50;37.40;;;;;;20623737;28;20049;-74
2021/12/05 13:00:53;;;;;;;0.90;0.57;;;19.70;38.40;;;;;;20647574;28;20480;-74
2021/12/05 13:11:08;;;;;;;1.25;0.52;;;18.60;40.00;;;;;;20602631;28;20053;-73
2021/12/05 13:21:09;;;;;;;1.35;0.73;;;17.80;41.60;;;;;;20608396;28;20558;-78
2021/12/05 13:31:28;;;;;;;1.52;1.38;;;17.20;42.80;;;;;;20648632;28;20034;-74
2021/12/05 13:41:29;;;;;;;1.50;0.88;;;16.80;43.60;;;;;;20668397;28;20384;-73
2021/12/05 13:51:31;;;;;;;5.20;1.35;;;16.60;44.00;;;;;;20633223;28;20084;-72
2021/12/05 14:01:36;;;;;;;3.22;1.10;;;16.60;44.40;;;;;;20651016;28;20400;-72
2021/12/05 14:11:41;;;;;;;3.15;0.93;;;16.70;44.50;;;;;;20616617;28;20064;-72
2021/12/05 14:21:48;;;;;;;4.47;2.10;;;16.70;44.40;;;;;;20608702;28;20041;-72
2021/12/05 14:31:51;;;;;;;3.67;1.40;;;16.70;44.40;;;;;;20614915;28;20078;-72
2021/12/05 14:41:56;;;;;;;3.58;1.80;;;16.70;44.70;;;;;;20614044;28;20038;-75
2021/12/05 14:51:57;;;;;;;2.83;1.70;;;16.50;45.00;;;;;;20636101;28;20042;-73
2021/12/05 15:01:58;;;;;;;3.75;1.50;;;16.40;45.20;;;;;;20643740;28;20048;-74
2021/12/05 15:12:12;;;;;;;3.40;1.63;;;16.30;45.50;;;;;;20611424;28;20455;-74
2021/12/05 15:22:12;;;;;;;2.92;1.75;;;16.20;45.70;;;;;;20611211;28;20034;-74
2021/12/05 15:32:21;;;;;;;4.53;2.08;;;16.10;45.90;;;;;;20625915;28;20119;-73
2021/12/05 15:42:25;;;;;;;3.22;2.03;;;16.00;46.20;;;;;;20625634;28;20033;-74
2021/12/05 15:52:36;;;;;;;3.30;1.80;;;16.90;44.80;;;;;;20586384;28;20480;-74
2021/12/05 16:02:36;;;;;;;1.88;1.40;;;17.80;43.20;;;;;;20608830;28;20519;-74
2021/12/05 16:12:39;;;;;;;3.00;1.55;;;18.90;41.40;;;;;;20603429;28;20054;-74
2021/12/05 16:22:59;;;;;;;2.72;1.30;;;19.70;39.90;;;;;;20639894;28;20041;-75
2021/12/05 16:33:01;;;;;;;2.88;1.48;;;20.00;39.00;;;;;;20654864;28;20038;-79
2021/12/05 16:43:09;;;;;;;2.33;1.42;;;20.20;38.70;;;;;;20622254;28;20045;-75
2021/12/05 16:53:11;;;;;;;2.83;1.75;;;20.30;38.60;;;;;;20640585;28;20046;-75
2021/12/05 17:03:17;;;;;;;3.17;1.38;;;19.30;39.60;;;;;;20639346;28;20602;-74
2021/12/05 17:13:26;;;;;;;3.80;1.58;;;17.80;42.00;;;;;;20622096;28;20034;-73
2021/12/05 17:23:32;;;;;;;3.28;1.58;;;16.60;44.30;;;;;;20625263;28;20050;-77
2021/12/05 17:33:42;;;;;;;1.75;1.58;;;15.50;46.40;;;;;;20619362;28;20121;-79
2021/12/05 17:43:43;;;;;;;4.18;1.63;;;14.60;48.30;;;;;;20621070;28;20073;-77
2021/12/05 17:53:44;;;;;;;5.32;2.70;;;14.00;49.80;;;;;;20627162;28;20078;-75
2021/12/05 18:03:44;;;;;;;3.08;1.73;;;13.50;51.10;;;;;;20633412;28;20496;-76
2021/12/05 18:13:51;;;;;;;3.05;1.92;;;13.20;52.20;;;;;;20647233;28;20030;-75
2021/12/05 18:23:52;;;;;;;2.70;1.50;;;12.90;53.00;;;;;;20615152;28;20046;-74
2021/12/05 18:33:56;;;;;;;2.22;1.50;;;12.70;53.70;;;;;;20612295;28;20128;-74
2021/12/05 18:44:00;;;;;;;3.40;2.03;;;12.60;54.20;;;;;;20620530;28;20038;-74
2021/12/05 18:54:00;;;;;;;3.58;1.90;;;12.50;54.60;;;;;;20663067;28;20042;-74
2021/12/05 19:14:30;;;;;;;5.60;2.17;;;12.40;55.20;;;;;;20614831;28;20034;-75
2021/12/05 19:24:31;;;;;;;4.70;2.13;;;12.40;55.40;;;;;;20626361;28;20045;-74
2021/12/05 19:34:32;;;;;;;4.50;2.37;;;12.50;55.40;;;;;;20640122;28;20653;-74
2021/12/05 19:44:33;;;;;;;5.43;2.90;;;12.50;55.30;;;;;;20607017;28;20396;-75
2021/12/05 19:54:33;;;;;;;5.83;2.43;;;12.50;55.30;;;;;;20614080;28;20129;-74
2021/12/05 20:04:34;;;;;;;5.18;3.13;;;12.50;55.30;;;;;;20597812;28;20380;-74
2021/12/05 20:14:35;;;;;;;4.93;2.80;;;12.50;55.30;;;;;;20614080;28;20046;-74
2021/12/05 20:24:35;;;;;;;5.70;3.30;;;12.50;55.30;;;;;;20642878;28;20188;-74
2021/12/05 20:34:36;;;;;;;7.80;3.73;;;12.50;55.40;;;;;;20609793;28;20026;-74
2021/12/05 20:44:37;;;;;;;9.00;3.60;;;12.40;55.30;;;;;;20629120;28;20629;-75
2021/12/05 20:54:38;;;;;;;7.35;3.80;;;12.40;55.40;;;;;;20628712;28;20328;-74
2021/12/05 21:04:38;;;;;;;7.25;4.05;;;12.40;55.40;;;;;;20662784;28;20140;-75
2021/12/05 21:14:39;;;;;;;7.30;4.40;;;12.40;55.40;;;;;;20668312;28;20066;-75
2021/12/05 21:24:40;;;;;;;9.85;4.97;;;12.40;55.50;;;;;;20647865;28;20030;-75
2021/12/05 21:34:41;;;;;;;7.03;3.72;;;12.40;55.50;;;;;;20657206;28;20069;-75
2021/12/05 21:44:41;;;;;;;8.50;4.63;;;12.30;55.50;;;;;;20637495;28;20508;-74
2021/12/05 21:54:42;;;;;;;11.00;5.00;;;12.40;55.60;;;;;;20629689;28;20388;-75
2021/12/05 22:04:43;;;;;;;8.20;3.90;;;12.30;55.50;;;;;;20650814;28;20123;-74
2021/12/05 22:14:43;;;;;;;8.67;4.97;;;12.30;55.50;;;;;;20631782;28;20026;-74
2021/12/05 22:24:44;;;;;;;10.63;5.38;;;12.50;55.60;;;;;;20631153;28;20301;-76
2021/12/05 22:34:44;;;;;;;10.70;4.75;;;12.30;55.50;;;;;;20632368;28;20113;-74
2021/12/05 22:44:46;;;;;;;9.30;5.57;;;12.30;55.50;;;;;;20631445;28;20030;-74
2021/12/05 22:54:47;;;;;;;13.30;5.57;;;12.30;55.60;;;;;;20646860;28;20098;-74
2021/12/05 23:04:47;;;;;;;11.23;4.93;;;12.30;55.60;;;;;;20614683;28;20038;-74
2021/12/05 23:14:48;;;;;;;10.20;5.03;;;12.30;55.60;;;;;;20613592;28;20081;-74
2021/12/05 23:24:49;;;;;;;10.93;5.88;;;12.30;55.60;;;;;;20628478;28;20372;-74
2021/12/05 23:34:49;;;;;;;10.07;5.73;;;12.20;55.50;;;;;;20628042;28;20124;-74
2021/12/05 23:44:50;;;;;;;10.20;5.97;;;12.20;55.50;;;;;;20611846;28;20387;-73
2021/12/05 23:54:50;;;;;;;12.30;6.00;;;12.20;55.50;;;;;;20626952;28;20034;-74
